sensor_id;sensor_type;location;lat;lon;timestamp;pressure;altitude;pressure_sealevel;temperature;humidity
54122;BME280;40029;58.708;50.190;2023-12-22T00:02:25;98361.03;;;1.11;89.18
54122;BME280;40029;58.708;50.190;2023-12-22T00:05:17;98360.28;;;1.06;89.43
54122;BME280;40029;58.708;50.190;2023-12-22T00:07:49;98350.91;;;1.01;89.09
54122;BME280;40029;58.708;50.190;2023-12-22T00:10:20;98357.91;;;0.99;88.82
54122;BME280;40029;58.708;50.190;2023-12-22T00:12:51;98350.81;;;1.04;89.40
54122;BME280;40029;58.708;50.190;2023-12-22T00:15:41;98349.00;;;1.07;89.05
54122;BME280;40029;58.708;50.190;2023-12-22T00:18:15;98351.84;;;0.98;88.94
54122;BME280;40029;58.708;50.190;2023-12-22T00:20:46;98342.88;;;1.08;89.10
54122;BME280;40029;58.708;50.190;2023-12-22T00:23:18;98342.88;;;1.08;89.78
54122;BME280;40029;58.708;50.190;2023-12-22T00:26:07;98344.75;;;1.03;89.00
54122;BME280;40029;58.708;50.190;2023-12-22T00:28:57;98344.59;;;1.09;89.62
54122;BME280;40029;58.708;50.190;2023-12-22T00:31:28;98344.59;;;1.09;89.52
54122;BME280;40029;58.708;50.190;2023-12-22T00:33:59;98339.22;;;1.15;88.95
54122;BME280;40029;58.708;50.190;2023-12-22T00:36:32;98339.22;;;1.15;89.64
54122;BME280;40029;58.708;50.190;2023-12-22T00:39:03;98340.97;;;1.15;89.34
54122;BME280;40029;58.708;50.190;2023-12-22T00:41:34;98338.22;;;1.20;89.11
54122;BME280;40029;58.708;50.190;2023-12-22T00:44:05;98340.75;;;1.23;89.14
54122;BME280;40029;58.708;50.190;2023-12-22T00:46:36;98334.00;;;1.15;89.32
54122;BME280;40029;58.708;50.190;2023-12-22T00:49:08;98334.72;;;1.22;89.08
54122;BME280;40029;58.708;50.190;2023-12-22T00:51:57;98325.56;;;1.07;89.26
54122;BME280;40029;58.708;50.190;2023-12-22T00:54:28;98326.16;;;1.17;88.86
54122;BME280;40029;58.708;50.190;2023-12-22T00:57:02;98325.28;;;1.18;88.74
54122;BME280;40029;58.708;50.190;2023-12-22T00:59:34;98317.28;;;1.24;89.51
54122;BME280;40029;58.708;50.190;2023-12-22T01:02:05;98316.94;;;1.05;89.18
54122;BME280;40029;58.708;50.190;2023-12-22T01:04:54;98318.63;;;1.06;89.15
54122;BME280;40029;58.708;50.190;2023-12-22T01:07:25;98314.97;;;1.13;89.94
54122;BME280;40029;58.708;50.190;2023-12-22T01:09:57;98303.31;;;1.27;89.10
54122;BME280;40029;58.708;50.190;2023-12-22T01:12:36;98313.91;;;1.21;89.40
54122;BME280;40029;58.708;50.190;2023-12-22T01:15:07;98309.69;;;1.17;89.50
54122;BME280;40029;58.708;50.190;2023-12-22T01:17:39;98306.19;;;1.18;89.38
54122;BME280;40029;58.708;50.190;2023-12-22T01:20:10;98310.59;;;1.15;88.97
54122;BME280;40029;58.708;50.190;2023-12-22T01:22:42;98312.50;;;1.09;89.89
54122;BME280;40029;58.708;50.190;2023-12-22T01:25:13;98311.50;;;1.14;89.83
54122;BME280;40029;58.708;50.190;2023-12-22T01:27:44;98317.34;;;1.23;89.42
54122;BME280;40029;58.708;50.190;2023-12-22T01:30:17;98311.06;;;1.30;89.23
54122;BME280;40029;58.708;50.190;2023-12-22T01:32:48;98311.91;;;1.30;88.68
54122;BME280;40029;58.708;50.190;2023-12-22T01:35:19;98326.16;;;1.17;88.81
54122;BME280;40029;58.708;50.190;2023-12-22T01:37:50;98320.91;;;1.19;89.65
54122;BME280;40029;58.708;50.190;2023-12-22T01:40:22;98320.16;;;1.15;89.31
54122;BME280;40029;58.708;50.190;2023-12-22T01:42:53;98326.28;;;1.12;89.73
54122;BME280;40029;58.708;50.190;2023-12-22T01:45:24;98327.78;;;1.21;89.32
54122;BME280;40029;58.708;50.190;2023-12-22T01:47:55;98327.19;;;1.11;89.85
54122;BME280;40029;58.708;50.190;2023-12-22T01:50:27;98328.97;;;1.09;89.93
54122;BME280;40029;58.708;50.190;2023-12-22T01:52:58;98323.03;;;1.04;90.20
54122;BME280;40029;58.708;50.190;2023-12-22T01:55:49;98329.19;;;1.02;89.81
54122;BME280;40029;58.708;50.190;2023-12-22T01:58:23;98328.28;;;1.03;90.53
54122;BME280;40029;58.708;50.190;2023-12-22T02:00:55;98329.06;;;1.06;89.73
54122;BME280;40029;58.708;50.190;2023-12-22T02:03:27;98325.59;;;1.06;90.15
54122;BME280;40029;58.708;50.190;2023-12-22T02:05:58;98321.16;;;1.09;89.55
54122;BME280;40029;58.708;50.190;2023-12-22T02:08:32;98307.31;;;1.09;89.35
54122;BME280;40029;58.708;50.190;2023-12-22T02:11:04;98316.19;;;1.02;89.14
54122;BME280;40029;58.708;50.190;2023-12-22T02:13:35;98320.75;;;0.92;89.48
54122;BME280;40029;58.708;50.190;2023-12-22T02:19:43;98324.50;;;0.82;89.01
54122;BME280;40029;58.708;50.190;2023-12-22T02:22:14;98331.50;;;0.80;89.25
54122;BME280;40029;58.708;50.190;2023-12-22T02:24:46;98337.75;;;0.72;89.63
54122;BME280;40029;58.708;50.190;2023-12-22T02:27:50;98328.22;;;0.71;89.28
54122;BME280;40029;58.708;50.190;2023-12-22T02:33:17;98331.78;;;0.69;89.07
54122;BME280;40029;58.708;50.190;2023-12-22T02:35:50;98331.00;;;0.65;89.48
54122;BME280;40029;58.708;50.190;2023-12-22T02:38:23;98324.97;;;0.63;89.47
54122;BME280;40029;58.708;50.190;2023-12-22T02:40:55;98322.50;;;0.57;89.28
54122;BME280;40029;58.708;50.190;2023-12-22T02:43:28;98325.28;;;0.51;89.63
54122;BME280;40029;58.708;50.190;2023-12-22T02:45:59;98334.81;;;0.50;89.74
54122;BME280;40029;58.708;50.190;2023-12-22T02:48:48;98330.31;;;0.57;89.42
54122;BME280;40029;58.708;50.190;2023-12-22T02:51:20;98329.31;;;0.63;89.20
54122;BME280;40029;58.708;50.190;2023-12-22T02:53:51;98327.88;;;0.51;89.31
54122;BME280;40029;58.708;50.190;2023-12-22T02:56:22;98322.81;;;0.46;89.11
54122;BME280;40029;58.708;50.190;2023-12-22T02:58:53;98323.69;;;0.45;89.17
54122;BME280;40029;58.708;50.190;2023-12-22T03:01:24;98327.06;;;0.49;89.41
54122;BME280;40029;58.708;50.190;2023-12-22T03:03:55;98330.69;;;0.42;89.70
54122;BME280;40029;58.708;50.190;2023-12-22T03:06:26;98325.34;;;0.48;89.16
54122;BME280;40029;58.708;50.190;2023-12-22T03:08:57;98332.47;;;0.40;89.50
54122;BME280;40029;58.708;50.190;2023-12-22T03:11:28;98330.75;;;0.38;89.47
54122;BME280;40029;58.708;50.190;2023-12-22T03:14:00;98332.66;;;0.32;89.80
54122;BME280;40029;58.708;50.190;2023-12-22T03:16:49;98336.06;;;0.35;89.64
54122;BME280;40029;58.708;50.190;2023-12-22T03:19:21;98322.88;;;0.43;89.68
54122;BME280;40029;58.708;50.190;2023-12-22T03:22:11;98318.56;;;0.41;89.24
54122;BME280;40029;58.708;50.190;2023-12-22T03:24:43;98322.13;;;0.38;89.06
54122;BME280;40029;58.708;50.190;2023-12-22T03:27:15;98323.94;;;0.34;89.55
54122;BME280;40029;58.708;50.190;2023-12-22T03:29:49;98333.44;;;0.37;89.32
54122;BME280;40029;58.708;50.190;2023-12-22T03:32:20;98330.84;;;0.35;90.13
54122;BME280;40029;58.708;50.190;2023-12-22T03:34:51;98335.94;;;0.40;89.46
54122;BME280;40029;58.708;50.190;2023-12-22T03:37:22;98338.72;;;0.32;89.95
54122;BME280;40029;58.708;50.190;2023-12-22T03:39:53;98328.28;;;0.34;89.49
54122;BME280;40029;58.708;50.190;2023-12-22T03:42:24;98334.38;;;0.33;89.88
54122;BME280;40029;58.708;50.190;2023-12-22T03:44:56;98337.16;;;0.25;89.87
54122;BME280;40029;58.708;50.190;2023-12-22T03:47:27;98333.66;;;0.28;90.16
54122;BME280;40029;58.708;50.190;2023-12-22T03:49:58;98340.59;;;0.26;89.79
54122;BME280;40029;58.708;50.190;2023-12-22T03:52:29;98340.50;;;0.30;89.36
54122;BME280;40029;58.708;50.190;2023-12-22T03:55:00;98340.38;;;0.35;89.42
54122;BME280;40029;58.708;50.190;2023-12-22T03:57:32;98339.81;;;0.22;90.16
54122;BME280;40029;58.708;50.190;2023-12-22T04:00:04;98346.72;;;0.25;89.86
54122;BME280;40029;58.708;50.190;2023-12-22T04:02:36;98341.56;;;0.22;89.80
54122;BME280;40029;58.708;50.190;2023-12-22T04:05:07;98346.88;;;0.17;90.29
54122;BME280;40029;58.708;50.190;2023-12-22T04:07:57;98345.16;;;0.16;90.16
54122;BME280;40029;58.708;50.190;2023-12-22T04:10:28;98340.78;;;0.18;90.36
54122;BME280;40029;58.708;50.190;2023-12-22T04:13:00;98345.06;;;0.21;90.05
54122;BME280;40029;58.708;50.190;2023-12-22T04:15:31;98349.41;;;0.20;90.32
54122;BME280;40029;58.708;50.190;2023-12-22T04:18:02;98345.22;;;0.13;90.43
54122;BME280;40029;58.708;50.190;2023-12-22T04:20:34;98342.50;;;0.19;90.45
54122;BME280;40029;58.708;50.190;2023-12-22T04:23:05;98339.97;;;0.16;89.74
54122;BME280;40029;58.708;50.190;2023-12-22T04:25:36;98346.88;;;0.17;90.23
54122;BME280;40029;58.708;50.190;2023-12-22T04:28:08;98341.59;;;0.20;90.19
54122;BME280;40029;58.708;50.190;2023-12-22T04:30:57;98350.41;;;0.13;89.91
54122;BME280;40029;58.708;50.190;2023-12-22T04:33:28;98347.75;;;0.16;90.41
54122;BME280;40029;58.708;50.190;2023-12-22T04:36:00;98344.25;;;0.18;90.37
54122;BME280;40029;58.708;50.190;2023-12-22T04:38:31;98346.13;;;0.12;89.96
54122;BME280;40029;58.708;50.190;2023-12-22T04:41:02;98351.31;;;0.12;89.76
54122;BME280;40029;58.708;50.190;2023-12-22T04:43:34;98347.94;;;0.08;90.33
54122;BME280;40029;58.708;50.190;2023-12-22T04:46:05;98345.28;;;0.11;90.00
54122;BME280;40029;58.708;50.190;2023-12-22T04:48:36;98349.50;;;0.17;89.97
54122;BME280;40029;58.708;50.190;2023-12-22T04:51:07;98359.13;;;0.12;90.49
54122;BME280;40029;58.708;50.190;2023-12-22T04:53:38;98358.22;;;0.13;90.35
54122;BME280;40029;58.708;50.190;2023-12-22T04:56:10;98357.56;;;0.05;90.58
54122;BME280;40029;58.708;50.190;2023-12-22T04:58:41;98357.50;;;0.08;90.67
54122;BME280;40029;58.708;50.190;2023-12-22T05:01:31;98352.97;;;0.16;89.91
54122;BME280;40029;58.708;50.190;2023-12-22T05:04:03;98352.19;;;0.11;90.36
54122;BME280;40029;58.708;50.190;2023-12-22T05:06:34;98350.63;;;0.04;90.15
54122;BME280;40029;58.708;50.190;2023-12-22T05:09:05;98353.94;;;0.12;90.36
54122;BME280;40029;58.708;50.190;2023-12-22T05:11:36;98358.34;;;0.08;90.28
54122;BME280;40029;58.708;50.190;2023-12-22T05:14:09;98359.34;;;0.01;90.17
54122;BME280;40029;58.708;50.190;2023-12-22T05:16:40;98366.00;;;0.13;90.47
54122;BME280;40029;58.708;50.190;2023-12-22T05:19:11;98366.91;;;0.13;89.86
54122;BME280;40029;58.708;50.190;2023-12-22T05:21:42;98360.91;;;0.10;90.65
54122;BME280;40029;58.708;50.190;2023-12-22T05:24:14;98363.59;;;0.05;90.43
54122;BME280;40029;58.708;50.190;2023-12-22T05:26:45;98360.78;;;0.14;90.51
54122;BME280;40029;58.708;50.190;2023-12-22T05:29:16;98362.69;;;0.08;89.93
54122;BME280;40029;58.708;50.190;2023-12-22T05:31:47;98371.22;;;0.13;89.97
54122;BME280;40029;58.708;50.190;2023-12-22T05:34:18;98367.69;;;0.17;89.77
54122;BME280;40029;58.708;50.190;2023-12-22T05:36:50;98369.53;;;0.12;90.13
54122;BME280;40029;58.708;50.190;2023-12-22T05:39:39;98373.00;;;0.11;90.16
54122;BME280;40029;58.708;50.190;2023-12-22T05:42:11;98368.88;;;0.02;90.17
54122;BME280;40029;58.708;50.190;2023-12-22T05:44:42;98368.69;;;0.11;90.22
54122;BME280;40029;58.708;50.190;2023-12-22T05:47:13;98369.59;;;0.09;89.93
54122;BME280;40029;58.708;50.190;2023-12-22T05:49:44;98372.97;;;0.12;89.83
54122;BME280;40029;58.708;50.190;2023-12-22T05:52:15;98378.88;;;0.21;90.23
54122;BME280;40029;58.708;50.190;2023-12-22T05:54:47;98385.94;;;0.14;89.25
54122;BME280;40029;58.708;50.190;2023-12-22T05:57:18;98391.91;;;0.19;89.94
54122;BME280;40029;58.708;50.190;2023-12-22T05:59:49;98406.75;;;0.12;90.32
54122;BME280;40029;58.708;50.190;2023-12-22T06:02:20;98395.53;;;0.10;90.08
54122;BME280;40029;58.708;50.190;2023-12-22T06:04:51;98397.09;;;0.19;90.42
54122;BME280;40029;58.708;50.190;2023-12-22T06:07:23;98394.75;;;0.07;89.87
54122;BME280;40029;58.708;50.190;2023-12-22T06:09:54;98393.88;;;0.08;90.50
54122;BME280;40029;58.708;50.190;2023-12-22T06:12:26;98392.09;;;0.10;90.30
54122;BME280;40029;58.708;50.190;2023-12-22T06:14:57;98404.13;;;0.14;90.63
54122;BME280;40029;58.708;50.190;2023-12-22T06:17:28;98405.06;;;0.11;89.83
54122;BME280;40029;58.708;50.190;2023-12-22T06:19:59;98393.75;;;0.14;90.17
54122;BME280;40029;58.708;50.190;2023-12-22T06:22:31;98396.78;;;0.31;90.08
54122;BME280;40029;58.708;50.190;2023-12-22T06:25:04;98404.78;;;0.24;89.19
54122;BME280;40029;58.708;50.190;2023-12-22T06:27:38;98404.75;;;0.25;89.80
54122;BME280;40029;58.708;50.190;2023-12-22T06:30:09;98401.56;;;0.12;90.34
54122;BME280;40029;58.708;50.190;2023-12-22T06:32:40;98408.47;;;0.15;89.94
54122;BME280;40029;58.708;50.190;2023-12-22T06:35:12;98404.91;;;0.19;89.94
54122;BME280;40029;58.708;50.190;2023-12-22T06:37:43;98401.97;;;0.33;90.23
54122;BME280;40029;58.708;50.190;2023-12-22T06:40:15;98409.25;;;0.18;90.15
54122;BME280;40029;58.708;50.190;2023-12-22T06:42:46;98408.16;;;0.27;90.35
54122;BME280;40029;58.708;50.190;2023-12-22T06:45:17;98410.16;;;0.16;89.89
54122;BME280;40029;58.708;50.190;2023-12-22T06:47:48;98408.41;;;0.16;89.92
54122;BME280;40029;58.708;50.190;2023-12-22T06:50:19;98404.72;;;0.27;89.55
54122;BME280;40029;58.708;50.190;2023-12-22T06:52:50;98404.88;;;0.21;90.22
54122;BME280;40029;58.708;50.190;2023-12-22T06:55:41;98403.97;;;0.22;89.51
54122;BME280;40029;58.708;50.190;2023-12-22T06:58:12;98403.97;;;0.20;89.68
54122;BME280;40029;58.708;50.190;2023-12-22T07:00:43;98407.34;;;0.25;89.59
54122;BME280;40029;58.708;50.190;2023-12-22T07:03:14;98400.50;;;0.21;89.89
54122;BME280;40029;58.708;50.190;2023-12-22T07:05:47;98413.47;;;0.24;89.92
54122;BME280;40029;58.708;50.190;2023-12-22T07:08:18;98408.06;;;0.33;90.02
54122;BME280;40029;58.708;50.190;2023-12-22T07:10:49;98409.84;;;0.30;89.38
54122;BME280;40029;58.708;50.190;2023-12-22T07:13:20;98412.50;;;0.28;89.43
54122;BME280;40029;58.708;50.190;2023-12-22T07:15:51;98412.50;;;0.28;90.21
54122;BME280;40029;58.708;50.190;2023-12-22T07:18:22;98415.75;;;0.36;89.71
54122;BME280;40029;58.708;50.190;2023-12-22T07:20:54;98415.72;;;0.38;89.52
54122;BME280;40029;58.708;50.190;2023-12-22T07:23:25;98412.41;;;0.31;89.37
54122;BME280;40029;58.708;50.190;2023-12-22T07:25:56;98412.34;;;0.34;89.56
54122;BME280;40029;58.708;50.190;2023-12-22T07:28:27;98405.16;;;0.46;89.75
54122;BME280;40029;58.708;50.190;2023-12-22T07:30:58;98399.94;;;0.46;89.18
54122;BME280;40029;58.708;50.190;2023-12-22T07:33:48;98411.38;;;0.38;89.35
54122;BME280;40029;58.708;50.190;2023-12-22T07:36:19;98416.53;;;0.40;88.86
54122;BME280;40029;58.708;50.190;2023-12-22T07:38:52;98418.34;;;0.36;89.53
54122;BME280;40029;58.708;50.190;2023-12-22T07:41:42;98417.19;;;0.50;89.53
54122;BME280;40029;58.708;50.190;2023-12-22T07:44:13;98421.97;;;0.31;89.06
54122;BME280;40029;58.708;50.190;2023-12-22T07:47:03;98426.25;;;0.33;89.59
54122;BME280;40029;58.708;50.190;2023-12-22T07:49:34;98421.84;;;0.37;89.30
54122;BME280;40029;58.708;50.190;2023-12-22T07:52:05;98429.72;;;0.32;89.36
54122;BME280;40029;58.708;50.190;2023-12-22T07:54:37;98436.66;;;0.33;89.43
54122;BME280;40029;58.708;50.190;2023-12-22T07:57:08;98445.19;;;0.38;89.48
54122;BME280;40029;58.708;50.190;2023-12-22T07:59:58;98453.94;;;0.34;89.11
54122;BME280;40029;58.708;50.190;2023-12-22T08:02:29;98454.91;;;0.30;89.71
54122;BME280;40029;58.708;50.190;2023-12-22T08:05:00;98457.09;;;0.49;89.24
54122;BME280;40029;58.708;50.190;2023-12-22T08:07:31;98463.34;;;0.40;89.71
54122;BME280;40029;58.708;50.190;2023-12-22T08:10:03;98465.16;;;0.36;89.74
54122;BME280;40029;58.708;50.190;2023-12-22T08:12:36;98465.13;;;0.38;89.46
54122;BME280;40029;58.708;50.190;2023-12-22T08:15:08;98466.72;;;0.45;89.54
54122;BME280;40029;58.708;50.190;2023-12-22T08:17:49;98454.69;;;0.41;89.63
54122;BME280;40029;58.708;50.190;2023-12-22T08:20:21;98467.56;;;0.46;89.47
54122;BME280;40029;58.708;50.190;2023-12-22T08:22:52;98459.16;;;0.34;88.90
54122;BME280;40029;58.708;50.190;2023-12-22T08:25:23;98469.34;;;0.44;89.05
54122;BME280;40029;58.708;50.190;2023-12-22T08:27:55;98464.97;;;0.46;89.05
54122;BME280;40029;58.708;50.190;2023-12-22T08:30:26;98469.28;;;0.47;89.36
54122;BME280;40029;58.708;50.190;2023-12-22T08:32:57;98476.94;;;0.53;88.88
54122;BME280;40029;58.708;50.190;2023-12-22T08:35:46;98479.69;;;0.47;88.64
54122;BME280;40029;58.708;50.190;2023-12-22T08:38:17;98478.66;;;0.54;89.45
54122;BME280;40029;58.708;50.190;2023-12-22T08:40:49;98479.66;;;0.48;88.76
54122;BME280;40029;58.708;50.190;2023-12-22T08:43:20;98483.91;;;0.52;89.63
54122;BME280;40029;58.708;50.190;2023-12-22T08:45:51;98475.25;;;0.52;89.25
54122;BME280;40029;58.708;50.190;2023-12-22T08:48:22;98481.06;;;0.63;88.62
54122;BME280;40029;58.708;50.190;2023-12-22T08:50:53;98479.22;;;0.68;88.79
54122;BME280;40029;58.708;50.190;2023-12-22T08:53:25;98477.66;;;0.61;88.90
54122;BME280;40029;58.708;50.190;2023-12-22T08:56:15;98477.66;;;0.61;88.77
54122;BME280;40029;58.708;50.190;2023-12-22T08:58:47;98474.94;;;0.66;88.97
54122;BME280;40029;58.708;50.190;2023-12-22T09:01:21;98477.66;;;0.61;89.30
54122;BME280;40029;58.708;50.190;2023-12-22T09:04:11;98481.19;;;0.57;88.80
54122;BME280;40029;58.708;50.190;2023-12-22T09:06:43;98479.38;;;0.61;88.72
54122;BME280;40029;58.708;50.190;2023-12-22T09:09:14;98480.47;;;0.50;88.68
54122;BME280;40029;58.708;50.190;2023-12-22T09:12:04;98476.66;;;0.67;88.62
54122;BME280;40029;58.708;50.190;2023-12-22T09:14:35;98479.34;;;0.62;89.26
54122;BME280;40029;58.708;50.190;2023-12-22T09:17:27;98473.31;;;0.60;88.79
54122;BME280;40029;58.708;50.190;2023-12-22T09:20:17;98481.06;;;0.63;88.67
54122;BME280;40029;58.708;50.190;2023-12-22T09:22:49;98486.31;;;0.62;89.05
54122;BME280;40029;58.708;50.190;2023-12-22T09:25:20;98482.84;;;0.61;88.97
54122;BME280;40029;58.708;50.190;2023-12-22T09:27:51;98489.75;;;0.62;88.61
54122;BME280;40029;58.708;50.190;2023-12-22T09:30:23;98492.59;;;0.51;89.04
54122;BME280;40029;58.708;50.190;2023-12-22T09:32:54;98503.56;;;0.64;88.95
54122;BME280;40029;58.708;50.190;2023-12-22T09:35:25;98505.44;;;0.59;88.36
54122;BME280;40029;58.708;50.190;2023-12-22T09:37:57;98511.53;;;0.58;89.10
54122;BME280;40029;58.708;50.190;2023-12-22T09:40:29;98502.78;;;0.61;89.24
54122;BME280;40029;58.708;50.190;2023-12-22T09:43:02;98503.66;;;0.61;89.03
54122;BME280;40029;58.708;50.190;2023-12-22T09:45:33;98505.56;;;0.53;88.85
54122;BME280;40029;58.708;50.190;2023-12-22T09:48:05;98506.19;;;0.63;89.20
54122;BME280;40029;58.708;50.190;2023-12-22T09:50:38;98512.28;;;0.63;88.67
54122;BME280;40029;58.708;50.190;2023-12-22T09:53:14;98500.69;;;0.76;88.46
54122;BME280;40029;58.708;50.190;2023-12-22T09:55:46;98514.53;;;0.79;88.55
54122;BME280;40029;58.708;50.190;2023-12-22T09:58:17;98512.78;;;0.79;88.76
54122;BME280;40029;58.708;50.190;2023-12-22T10:00:51;98517.13;;;0.79;88.67
54122;BME280;40029;58.708;50.190;2023-12-22T10:03:24;98517.19;;;0.75;88.62
54122;BME280;40029;58.708;50.190;2023-12-22T10:05:56;98513.59;;;0.81;88.41
54122;BME280;40029;58.708;50.190;2023-12-22T10:08:28;98503.91;;;0.88;88.12
54122;BME280;40029;58.708;50.190;2023-12-22T10:10:59;98506.31;;;0.58;88.73
54122;BME280;40029;58.708;50.190;2023-12-22T10:13:33;98505.16;;;0.71;89.02
54122;BME280;40029;58.708;50.190;2023-12-22T10:16:06;98514.59;;;0.75;88.67
54122;BME280;40029;58.708;50.190;2023-12-22T10:18:38;98522.28;;;0.82;88.56
54122;BME280;40029;58.708;50.190;2023-12-22T10:21:09;98527.41;;;0.85;88.82
54122;BME280;40029;58.708;50.190;2023-12-22T10:23:58;98529.28;;;0.80;88.25
54122;BME280;40029;58.708;50.190;2023-12-22T10:26:29;98530.84;;;0.87;88.42
54122;BME280;40029;58.708;50.190;2023-12-22T10:29:02;98537.00;;;0.83;88.30
54122;BME280;40029;58.708;50.190;2023-12-22T10:31:40;98534.53;;;0.76;88.23
54122;BME280;40029;58.708;50.190;2023-12-22T10:34:11;98537.94;;;0.79;88.63
54122;BME280;40029;58.708;50.190;2023-12-22T10:36:42;98544.78;;;0.83;88.88
54122;BME280;40029;58.708;50.190;2023-12-22T10:39:15;98541.47;;;0.77;88.10
54122;BME280;40029;58.708;50.190;2023-12-22T10:41:46;98544.88;;;0.80;88.91
54122;BME280;40029;58.708;50.190;2023-12-22T10:44:20;98542.50;;;0.70;88.71
54122;BME280;40029;58.708;50.190;2023-12-22T10:46:52;98537.94;;;0.79;88.49
54122;BME280;40029;58.708;50.190;2023-12-22T10:49:25;98538.88;;;0.77;88.79
54122;BME280;40029;58.708;50.190;2023-12-22T10:51:56;98540.72;;;0.71;88.51
54122;BME280;40029;58.708;50.190;2023-12-22T10:54:29;98548.47;;;0.74;88.75
54122;BME280;40029;58.708;50.190;2023-12-22T10:57:19;98554.53;;;0.74;89.29
54122;BME280;40029;58.708;50.190;2023-12-22T10:59:51;98553.56;;;0.79;89.42
54122;BME280;40029;58.708;50.190;2023-12-22T11:02:22;98564.97;;;0.73;88.87
54122;BME280;40029;58.708;50.190;2023-12-22T11:05:02;98565.97;;;0.67;88.92
54122;BME280;40029;58.708;50.190;2023-12-22T11:07:36;98559.91;;;0.67;89.38
54122;BME280;40029;58.708;50.190;2023-12-22T11:10:11;98559.00;;;0.68;88.98
54122;BME280;40029;58.708;50.190;2023-12-22T11:12:43;98555.28;;;0.80;89.10
54122;BME280;40029;58.708;50.190;2023-12-22T11:15:16;98571.78;;;0.79;88.67
54122;BME280;40029;58.708;50.190;2023-12-22T11:17:51;98571.56;;;0.89;88.31
54122;BME280;40029;58.708;50.190;2023-12-22T11:20:22;98574.19;;;0.88;88.33
54122;BME280;40029;58.708;50.190;2023-12-22T11:22:56;98576.03;;;0.83;88.24
54122;BME280;40029;58.708;50.190;2023-12-22T11:25:30;98576.16;;;0.76;88.39
54122;BME280;40029;58.708;50.190;2023-12-22T11:28:02;98580.44;;;0.79;88.57
54122;BME280;40029;58.708;50.190;2023-12-22T11:30:36;98584.75;;;0.82;88.24
54122;BME280;40029;58.708;50.190;2023-12-22T11:33:08;98592.31;;;0.92;88.62
54122;BME280;40029;58.708;50.190;2023-12-22T11:35:41;98592.31;;;0.92;88.22
54122;BME280;40029;58.708;50.190;2023-12-22T11:38:31;98590.00;;;0.79;88.29
54122;BME280;40029;58.708;50.190;2023-12-22T11:41:04;98589.78;;;0.88;88.74
54122;BME280;40029;58.708;50.190;2023-12-22T11:43:38;98595.00;;;0.88;88.01
54122;BME280;40029;58.708;50.190;2023-12-22T11:46:09;98597.59;;;0.88;88.28
54122;BME280;40029;58.708;50.190;2023-12-22T11:48:47;98608.13;;;0.83;87.64
54122;BME280;40029;58.708;50.190;2023-12-22T11:51:19;98609.78;;;0.87;88.64
54122;BME280;40029;58.708;50.190;2023-12-22T11:53:52;98617.59;;;0.86;88.09
54122;BME280;40029;58.708;50.190;2023-12-22T11:56:24;98617.66;;;0.83;88.24
54122;BME280;40029;58.708;50.190;2023-12-22T11:58:55;98618.94;;;0.65;88.39
54122;BME280;40029;58.708;50.190;2023-12-22T12:01:29;98616.38;;;0.62;89.03
54122;BME280;40029;58.708;50.190;2023-12-22T12:04:03;98616.44;;;0.57;89.07
54122;BME280;40029;58.708;50.190;2023-12-22T12:06:35;98615.38;;;0.67;88.90
54122;BME280;40029;58.708;50.190;2023-12-22T12:09:10;98618.84;;;0.68;88.86
54122;BME280;40029;58.708;50.190;2023-12-22T12:14:32;98625.84;;;0.64;88.48
54122;BME280;40029;58.708;50.190;2023-12-22T12:17:06;98626.66;;;0.66;88.71
54122;BME280;40029;58.708;50.190;2023-12-22T12:19:47;98635.38;;;0.65;89.14
54122;BME280;40029;58.708;50.190;2023-12-22T12:22:18;98637.00;;;0.71;88.91
54122;BME280;40029;58.708;50.190;2023-12-22T12:24:52;98639.63;;;0.69;89.25
54122;BME280;40029;58.708;50.190;2023-12-22T12:27:24;98645.03;;;0.58;89.17
54122;BME280;40029;58.708;50.190;2023-12-22T12:29:56;98645.94;;;0.59;88.75
54122;BME280;40029;58.708;50.190;2023-12-22T12:32:28;98651.06;;;0.61;89.43
54122;BME280;40029;58.708;50.190;2023-12-22T12:34:59;98656.44;;;0.53;89.34
54122;BME280;40029;58.708;50.190;2023-12-22T12:37:31;98649.63;;;0.46;89.55
54122;BME280;40029;58.708;50.190;2023-12-22T12:40:03;98651.28;;;0.50;89.17
54122;BME280;40029;58.708;50.190;2023-12-22T12:42:36;98651.34;;;0.48;89.76
54122;BME280;40029;58.708;50.190;2023-12-22T12:45:09;98658.06;;;0.58;89.51
54122;BME280;40029;58.708;50.190;2023-12-22T12:47:40;98652.94;;;0.54;89.72
54122;BME280;40029;58.708;50.190;2023-12-22T12:50:11;98657.19;;;0.60;89.64
54122;BME280;40029;58.708;50.190;2023-12-22T12:52:43;98654.56;;;0.60;88.96
54122;BME280;40029;58.708;50.190;2023-12-22T12:55:14;98657.97;;;0.63;89.23
54122;BME280;40029;58.708;50.190;2023-12-22T12:57:48;98657.91;;;0.66;88.74
54122;BME280;40029;58.708;50.190;2023-12-22T13:00:27;98664.00;;;0.65;89.33
54122;BME280;40029;58.708;50.190;2023-12-22T13:03:04;98667.69;;;0.53;89.38
54122;BME280;40029;58.708;50.190;2023-12-22T13:05:37;98666.75;;;0.57;89.11
54122;BME280;40029;58.708;50.190;2023-12-22T13:08:12;98668.25;;;0.69;89.64
54122;BME280;40029;58.708;50.190;2023-12-22T13:10:43;98674.38;;;0.67;89.23
54122;BME280;40029;58.708;50.190;2023-12-22T13:13:15;98674.38;;;0.68;89.46
54122;BME280;40029;58.708;50.190;2023-12-22T13:15:47;98672.66;;;0.66;89.30
54122;BME280;40029;58.708;50.190;2023-12-22T13:18:18;98667.47;;;0.66;89.29
54122;BME280;40029;58.708;50.190;2023-12-22T13:20:50;98671.75;;;0.68;89.17
54122;BME280;40029;58.708;50.190;2023-12-22T13:23:21;98669.97;;;0.70;89.30
54122;BME280;40029;58.708;50.190;2023-12-22T13:25:53;98677.69;;;0.75;88.89
54122;BME280;40029;58.708;50.190;2023-12-22T13:28:27;98677.66;;;0.76;88.67
54122;BME280;40029;58.708;50.190;2023-12-22T13:30:59;98685.41;;;0.80;88.63
54122;BME280;40029;58.708;50.190;2023-12-22T13:33:33;98681.06;;;0.80;89.01
54122;BME280;40029;58.708;50.190;2023-12-22T13:36:05;98688.00;;;0.80;88.93
54122;BME280;40029;58.708;50.190;2023-12-22T13:38:37;98686.38;;;0.74;88.85
54122;BME280;40029;58.708;50.190;2023-12-22T13:41:09;98691.66;;;0.71;88.66
54122;BME280;40029;58.708;50.190;2023-12-22T13:43:40;98693.28;;;0.75;88.49